Time;durP1;ratioP1;P1;durP2;ratioP2;P2;SDS_P1;SDS_P2;PMS_P1;PMS_P2;Temp;Humidity;BMP_temperature;BMP_pressure;BME280_temperature;BME280_humidity;BME280_pressure;Samples;Min_cycle;Max_cycle;Signal;HPM_P1;HPM_P2
2022/04/01 00:00:46;;;;;;;3.17;0.50;;;;;;;0.41;68.05;100749.81;2070759;28;46158;-63
2022/04/01 00:01:48;;;;;;;2.80;0.30;;;;;;;0.42;67.43;100752.50;2070282;28;44266;-63
2022/04/01 00:02:52;;;;;;;1.98;0.43;;;;;;;0.41;67.56;100755.09;2070604;28;44280;-62
2022/04/01 00:03:54;;;;;;;1.35;0.40;;;;;;;0.41;67.45;100760.38;2069772;28;44934;-62
2022/04/01 00:04:56;;;;;;;2.75;0.40;;;;;;;0.41;67.76;100761.25;2070829;28;45239;-62
2022/04/01 00:05:59;;;;;;;1.13;0.38;;;;;;;0.42;68.20;100770.06;2071003;28;44963;-62
2022/04/01 00:07:02;;;;;;;1.65;0.30;;;;;;;0.41;67.74;100768.25;2073183;28;20038;-62
2022/04/01 00:08:04;;;;;;;3.33;0.30;;;;;;;0.41;66.99;100782.31;2071824;28;43060;-62
2022/04/01 00:09:06;;;;;;;1.20;0.40;;;;;;;0.43;66.53;100782.34;2071936;28;38036;-62
2022/04/01 00:10:09;;;;;;;0.65;0.30;;;;;;;0.41;66.66;100761.25;2071948;28;45771;-62
2022/04/01 00:11:10;;;;;;;2.50;0.43;;;;;;;0.42;67.01;100764.78;2072052;28;31836;-62
2022/04/01 00:12:13;;;;;;;1.95;0.45;;;;;;;0.40;66.65;100772.66;2072254;28;43388;-62
2022/04/01 00:13:14;;;;;;;1.13;0.43;;;;;;;0.40;66.88;100753.34;2071954;28;45442;-63
2022/04/01 00:14:16;;;;;;;1.52;0.40;;;;;;;0.38;66.98;100767.34;2071997;28;20986;-63
2022/04/01 00:15:18;;;;;;;3.67;0.30;;;;;;;0.37;66.17;100760.31;2071579;28;41716;-62
2022/04/01 00:16:20;;;;;;;4.53;0.50;;;;;;;0.37;66.84;100768.22;2071810;28;43076;-62
2022/04/01 00:17:22;;;;;;;0.73;0.20;;;;;;;0.34;66.59;100776.09;2071835;28;44563;-63
2022/04/01 00:18:23;;;;;;;2.03;0.40;;;;;;;0.34;66.55;100770.81;2071140;28;45114;-62
2022/04/01 00:19:25;;;;;;;3.22;0.40;;;;;;;0.34;67.08;100770.81;2071139;28;46486;-62
2022/04/01 00:20:27;;;;;;;2.03;0.50;;;;;;;0.32;66.79;100769.00;2072344;28;36298;-62
2022/04/01 00:21:29;;;;;;;2.92;0.30;;;;;;;0.32;67.68;100769.91;2071760;28;45758;-63
2022/04/01 00:22:31;;;;;;;2.63;0.40;;;;;;;0.30;67.05;100766.34;2071377;28;45741;-62
2022/04/01 00:23:33;;;;;;;0.90;0.35;;;;;;;0.31;66.85;100773.38;2071099;28;44091;-62
2022/04/01 00:24:34;;;;;;;2.80;0.40;;;;;;;0.31;66.68;100765.50;2070861;28;45361;-62
2022/04/01 00:25:36;;;;;;;2.58;0.47;;;;;;;0.34;66.90;100767.28;2071490;28;45179;-62
2022/04/01 00:26:38;;;;;;;2.88;0.40;;;;;;;0.32;66.46;100767.28;2071719;28;44274;-63
2022/04/01 00:27:43;;;;;;;1.40;0.40;;;;;;;0.31;66.78;100764.63;2072915;28;20042;-62
2022/04/01 00:28:44;;;;;;;3.00;0.63;;;;;;;0.30;66.85;100768.97;2071112;28;45742;-62
2022/04/01 00:29:48;;;;;;;1.65;0.40;;;;;;;0.29;66.83;100767.22;2055214;28;20166;-63
2022/04/01 00:30:50;;;;;;;2.22;0.40;;;;;;;0.29;66.92;100766.34;2057230;28;21056;-62
2022/04/01 00:32:01;;;;;;;3.75;0.50;;;;;;;0.28;67.26;100760.16;2072144;28;43311;-62
2022/04/01 00:33:05;;;;;;;1.60;0.40;;;;;;;0.28;67.14;100775.09;2072982;28;20034;-62
2022/04/01 00:34:16;;;;;;;1.42;0.32;;;;;;;0.29;67.24;100763.72;2063415;28;43469;-62
2022/04/01 00:35:17;;;;;;;2.78;0.40;;;;;;;0.28;67.14;100765.44;2064531;28;40468;-62
2022/04/01 00:36:19;;;;;;;1.52;0.40;;;;;;;0.28;67.45;100757.53;2070838;28;44465;-62
2022/04/01 00:37:21;;;;;;;1.60;0.40;;;;;;;0.26;67.58;100767.16;2072743;28;20898;-62
2022/04/01 00:38:24;;;;;;;1.60;0.30;;;;;;;0.27;67.69;100766.31;2071752;28;46156;-62
2022/04/01 00:39:29;;;;;;;2.20;0.40;;;;;;;0.25;67.48;100770.66;2071839;28;34815;-63
2022/04/01 00:40:35;;;;;;;4.55;0.25;;;;;;;0.25;67.39;100764.50;2072454;28;20989;-62
2022/04/01 00:41:37;;;;;;;1.10;0.38;;;;;;;0.23;67.05;100772.38;2070934;28;45960;-62
2022/04/01 00:42:41;;;;;;;2.88;0.40;;;;;;;0.23;67.50;100761.84;2062949;28;29729;-62
2022/04/01 00:43:42;;;;;;;1.80;0.50;;;;;;;0.25;67.60;100757.50;2063157;28;46378;-62
2022/04/01 00:44:44;;;;;;;4.20;0.40;;;;;;;0.26;66.64;100764.53;2063671;28;28922;-62
2022/04/01 00:45:51;;;;;;;0.70;0.40;;;;;;;0.27;66.82;100768.94;2055670;28;47072;-62
2022/04/01 00:47:14;;;;;;;2.97;0.43;;;;;;;0.28;66.53;100765.44;2064039;28;20058;-62
2022/04/01 00:48:17;;;;;;;1.42;0.40;;;;;;;0.28;66.55;100775.09;2072738;28;20796;-63
2022/04/01 00:49:20;;;;;;;1.92;0.38;;;;;;;0.28;66.87;100759.28;2061826;28;44472;-62
2022/04/01 00:50:22;;;;;;;2.88;0.40;;;;;;;0.27;67.05;100755.78;2064452;28;27059;-62
2022/04/01 00:51:25;;;;;;;0.90;0.30;;;;;;;0.28;66.49;100768.06;2071555;28;42907;-62
2022/04/01 00:52:26;;;;;;;2.13;0.40;;;;;;;0.26;66.83;100761.00;2071704;28;44439;-62
2022/04/01 00:53:30;;;;;;;1.15;0.40;;;;;;;0.27;66.04;100762.78;2072649;28;20029;-62
2022/04/01 00:54:32;;;;;;;1.30;0.30;;;;;;;0.27;65.97;100758.41;2071688;28;33539;-62
2022/04/01 00:55:36;;;;;;;2.58;0.40;;;;;;;0.30;65.34;100753.16;2063297;28;20148;-62
2022/04/01 00:56:39;;;;;;;3.00;0.43;;;;;;;0.33;65.55;100768.16;2056496;28;20043;-62
2022/04/01 00:57:41;;;;;;;1.13;0.30;;;;;;;0.32;65.61;100764.66;2062827;28;45457;-62
2022/04/01 00:58:43;;;;;;;1.42;0.30;;;;;;;0.33;65.81;100763.75;2071898;28;44522;-63
2022/04/01 00:59:46;;;;;;;2.55;0.38;;;;;;;0.33;66.00;100766.41;2071335;28;44065;-62
2022/04/01 01:00:50;;;;;;;4.32;0.68;;;;;;;0.32;66.07;100764.66;2072317;28;20997;-62
2022/04/01 01:01:52;;;;;;;1.60;0.38;;;;;;;0.32;66.04;100766.38;2070171;28;45064;-62
2022/04/01 01:02:54;;;;;;;1.58;0.40;;;;;;;0.34;65.84;100768.19;2072641;28;39658;-62
2022/04/01 01:03:56;;;;;;;3.15;0.40;;;;;;;0.32;65.95;100756.75;2071372;28;43571;-62
2022/04/01 01:04:57;;;;;;;1.85;0.40;;;;;;;0.32;66.60;100762.00;2071329;28;45871;-62
2022/04/01 01:05:59;;;;;;;1.60;0.40;;;;;;;0.31;66.48;100776.03;2062522;28;44616;-62
2022/04/01 01:07:03;;;;;;;1.10;0.30;;;;;;;0.32;66.89;100769.91;2064573;28;20102;-62
2022/04/01 01:08:08;;;;;;;1.45;0.30;;;;;;;0.32;67.07;100766.38;2070865;28;44346;-63
2022/04/01 01:09:12;;;;;;;1.20;0.35;;;;;;;0.30;67.03;100771.59;2063271;28;43483;-62
2022/04/01 01:10:16;;;;;;;2.58;0.35;;;;;;;0.32;67.14;100769.00;2064320;28;20042;-62
2022/04/01 01:11:18;;;;;;;2.08;0.40;;;;;;;0.31;66.44;100761.97;2063436;28;38726;-62
2022/04/01 01:12:20;;;;;;;2.17;0.50;;;;;;;0.32;66.37;100780.44;2063032;28;43731;-62
2022/04/01 01:13:22;;;;;;;3.67;0.60;;;;;;;0.32;66.71;100788.34;2071922;28;46307;-61
2022/04/01 01:14:30;;;;;;;1.75;0.50;;;;;;;0.33;66.54;100782.19;2069916;28;43450;-63
2022/04/01 01:15:34;;;;;;;1.15;0.40;;;;;;;0.33;66.04;100769.03;2071702;28;36455;-62
2022/04/01 01:16:41;;;;;;;2.17;0.40;;;;;;;0.33;66.07;100774.28;2071955;28;24239;-62
2022/04/01 01:17:43;;;;;;;4.40;0.57;;;;;;;0.34;66.00;100769.91;2071894;28;44284;-63
2022/04/01 01:18:44;;;;;;;1.55;0.40;;;;;;;0.35;66.27;100769.06;2069973;28;45072;-62
2022/04/01 01:19:46;;;;;;;1.35;0.30;;;;;;;0.35;65.47;100761.16;2072286;28;24552;-63
2022/04/01 01:20:48;;;;;;;3.65;0.50;;;;;;;0.36;64.94;100771.72;2071786;28;20085;-62
2022/04/01 01:21:54;;;;;;;1.98;0.45;;;;;;;0.36;65.02;100770.84;2072176;28;20236;-62
2022/04/01 01:22:57;;;;;;;1.10;0.40;;;;;;;0.40;64.81;100767.38;2062783;28;43466;-62
2022/04/01 01:24:04;;;;;;;3.30;0.40;;;;;;;0.41;64.58;100776.16;2056376;28;20908;-62
2022/04/01 01:25:12;;;;;;;2.05;0.40;;;;;;;0.40;64.22;100769.16;2055940;28;20161;-62
2022/04/01 01:26:14;;;;;;;2.58;0.40;;;;;;;0.41;64.57;100744.56;2056593;28;20035;-62
2022/04/01 01:27:16;;;;;;;1.00;0.40;;;;;;;0.41;64.12;100765.63;2064010;28;20039;-62
2022/04/01 01:28:18;;;;;;;3.92;0.35;;;;;;;0.42;64.36;100751.63;2070937;28;46838;-62
2022/04/01 01:29:29;;;;;;;1.63;0.32;;;;;;;0.42;64.25;100755.13;2070259;28;45202;-61
2022/04/01 01:30:30;;;;;;;1.88;0.40;;;;;;;0.43;63.36;100758.63;2062624;28;48346;-62
2022/04/01 01:31:33;;;;;;;1.60;0.32;;;;;;;0.43;63.67;100763.91;2063988;28;44140;-62
2022/04/01 01:32:35;;;;;;;1.00;0.20;;;;;;;0.43;63.42;100749.00;2072208;28;26161;-62
2022/04/01 01:33:39;;;;;;;1.95;0.20;;;;;;;0.45;63.07;100763.09;2071642;28;20163;-63
2022/04/01 01:34:41;;;;;;;1.33;0.52;;;;;;;0.46;63.25;100753.44;2072022;28;20046;-62
2022/04/01 01:35:44;;;;;;;5.35;0.40;;;;;;;0.48;62.53;100762.22;2072158;28;20916;-62
2022/04/01 01:36:47;;;;;;;1.55;0.20;;;;;;;0.52;61.83;100778.13;2072390;28;20043;-62
2022/04/01 01:37:49;;;;;;;1.77;0.20;;;;;;;0.53;61.36;100758.78;2072024;28;28990;-62
2022/04/01 01:38:51;;;;;;;2.10;0.35;;;;;;;0.57;61.27;100749.19;2070709;28;39784;-63
2022/04/01 01:39:55;;;;;;;1.10;0.22;;;;;;;0.57;61.25;100747.47;2063790;28;21066;-62
2022/04/01 01:40:57;;;;;;;2.13;0.30;;;;;;;0.56;61.51;100755.34;2055222;28;20058;-63
2022/04/01 01:41:58;;;;;;;2.38;0.88;;;;;;;0.55;60.92;100756.19;2055176;28;38572;-62
2022/04/01 01:43:00;;;;;;;1.73;0.30;;;;;;;0.57;61.48;100752.75;2054311;28;45565;-62
2022/04/01 01:44:04;;;;;;;1.30;0.22;;;;;;;0.58;60.85;100758.88;2054993;28;20058;-63
2022/04/01 01:45:06;;;;;;;2.28;0.20;;;;;;;0.59;60.40;100760.63;2062738;28;33923;-62
2022/04/01 01:46:09;;;;;;;1.38;0.30;;;;;;;0.61;60.20;100753.66;2062255;28;44934;-63
2022/04/01 01:47:12;;;;;;;1.08;0.20;;;;;;;0.60;60.34;100746.63;2063530;28;20090;-63
2022/04/01 01:48:16;;;;;;;1.00;0.30;;;;;;;0.63;59.89;100744.03;2063450;28;20162;-62
2022/04/01 01:49:20;;;;;;;1.23;0.20;;;;;;;0.63;60.24;100744.03;2063845;28;20090;-62
2022/04/01 01:54:43;;;;;;;1.10;0.20;;;;;;;0.70;58.78;100747.63;2066713;28;20055;-62
2022/04/01 01:55:44;;;;;;;1.08;0.20;;;;;;;0.72;58.95;100754.69;2071381;28;20094;-63
2022/04/01 01:56:46;;;;;;;0.73;0.22;;;;;;;0.74;58.50;100747.69;2071466;28;20031;-61
2022/04/01 01:57:49;;;;;;;0.32;0.10;;;;;;;0.72;58.63;100756.44;2063593;28;20050;-63
2022/04/01 01:58:51;;;;;;;1.38;0.20;;;;;;;0.70;59.56;100751.16;2063338;28;20161;-62
2022/04/01 01:59:53;;;;;;;1.90;0.20;;;;;;;0.72;58.69;100744.16;2062161;28;45094;-62
2022/04/01 02:00:55;;;;;;;1.80;0.22;;;;;;;0.74;58.96;100745.06;2055027;28;39104;-62
2022/04/01 02:01:57;;;;;;;3.35;0.20;;;;;;;0.74;59.42;100755.59;2062517;28;45741;-62
2022/04/01 02:02:59;;;;;;;0.85;0.28;;;;;;;0.75;58.55;100757.38;2070544;28;46679;-62
2022/04/01 02:04:01;;;;;;;2.05;0.20;;;;;;;0.75;59.04;100754.75;2062145;28;43591;-63
2022/04/01 02:05:07;;;;;;;2.08;0.28;;;;;;;0.74;59.44;100754.72;2063312;28;45669;-62
2022/04/01 02:06:09;;;;;;;0.70;0.20;;;;;;;0.73;59.47;100758.22;2063263;28;20050;-62
2022/04/01 02:07:11;;;;;;;1.67;0.30;;;;;;;0.72;59.18;100754.69;2062760;28;40847;-62
2022/04/01 02:08:13;;;;;;;0.88;0.20;;;;;;;0.74;59.37;100755.59;2062242;28;44153;-63
2022/04/01 02:09:16;;;;;;;1.13;0.20;;;;;;;0.74;59.75;100766.13;2054329;28;46030;-63
2022/04/01 02:10:20;;;;;;;1.85;0.30;;;;;;;0.74;59.82;100752.97;2063617;28;20915;-62
2022/04/01 02:11:22;;;;;;;1.60;0.20;;;;;;;0.72;60.78;100757.34;2062001;28;47396;-63
2022/04/01 02:12:28;;;;;;;1.38;0.20;;;;;;;0.73;60.18;100768.75;2055139;28;20129;-62
2022/04/01 02:13:32;;;;;;;0.73;0.20;;;;;;;0.73;61.07;100760.84;2063445;28;44335;-63
2022/04/01 02:14:34;;;;;;;1.90;0.20;;;;;;;0.72;60.64;100756.44;2071232;28;20050;-63
2022/04/01 02:15:36;;;;;;;2.80;0.30;;;;;;;0.72;60.54;100764.34;2063375;28;20126;-62
2022/04/01 02:16:39;;;;;;;1.75;0.17;;;;;;;0.75;60.76;100773.19;2055226;28;20062;-62
2022/04/01 02:17:41;;;;;;;1.63;0.20;;;;;;;0.73;61.32;100755.56;2055445;28;20051;-62
2022/04/01 02:18:43;;;;;;;1.98;0.30;;;;;;;0.73;61.41;100758.22;2054589;28;29880;-62
2022/04/01 02:19:45;;;;;;;1.02;0.17;;;;;;;0.73;61.09;100766.13;2054982;28;20043;-62
2022/04/01 02:20:48;;;;;;;1.63;0.10;;;;;;;0.75;61.36;100759.09;2061703;28;43810;-63
2022/04/01 02:23:19;;;;;;;1.08;0.20;;;;;;;0.76;61.42;100761.78;2063583;28;20122;-60
2022/04/01 02:24:23;;;;;;;1.05;0.30;;;;;;;0.74;61.45;100752.97;2062878;28;20928;-60
2022/04/01 02:25:27;;;;;;;1.60;0.22;;;;;;;0.72;62.17;100756.44;2054624;28;20141;-60
2022/04/01 02:26:30;;;;;;;1.33;0.40;;;;;;;0.72;62.41;100767.88;2047033;28;20817;-61
2022/04/01 02:27:32;;;;;;;3.08;0.30;;;;;;;0.73;62.08;100761.72;2054356;28;20082;-60
2022/04/01 02:28:42;;;;;;;3.92;0.30;;;;;;;0.74;62.74;100757.34;2054892;28;20810;-60
2022/04/01 02:29:46;;;;;;;1.67;0.20;;;;;;;0.72;62.68;100756.44;2054939;28;20058;-60
2022/04/01 02:30:48;;;;;;;2.10;0.30;;;;;;;0.73;62.60;100768.75;2054527;28;32018;-60
2022/04/01 02:32:10;;;;;;;1.58;0.20;;;;;;;0.72;62.55;100753.81;2054704;28;20907;-60
2022/04/01 02:33:35;;;;;;;3.50;0.20;;;;;;;0.70;62.90;100756.44;2055379;28;20113;-60
2022/04/01 02:34:36;;;;;;;1.75;0.20;;;;;;;0.72;63.05;100759.09;2063113;28;20174;-60
2022/04/01 02:35:38;;;;;;;1.55;0.20;;;;;;;0.71;62.97;100754.66;2054931;28;20893;-60
2022/04/01 02:36:43;;;;;;;0.88;0.20;;;;;;;0.71;62.88;100755.53;2047143;28;20906;-60
2022/04/01 02:37:47;;;;;;;1.45;0.30;;;;;;;0.71;62.92;100762.56;2055196;28;20055;-60
2022/04/01 02:38:53;;;;;;;2.22;0.30;;;;;;;0.73;62.82;100780.16;2062866;28;20852;-60
2022/04/01 02:39:55;;;;;;;4.00;0.20;;;;;;;0.75;62.55;100767.00;2047263;28;20795;-60
2022/04/01 02:41:00;;;;;;;2.22;0.20;;;;;;;0.80;62.68;100775.00;2055738;28;20070;-60
2022/04/01 02:42:06;;;;;;;1.38;0.30;;;;;;;0.76;62.77;100779.34;2054636;28;20043;-60
2022/04/01 02:43:13;;;;;;;1.60;0.30;;;;;;;0.75;62.54;100759.09;2047418;28;20056;-60
2022/04/01 02:44:18;;;;;;;0.90;0.20;;;;;;;0.76;63.11;100763.53;2054809;28;20801;-60
2022/04/01 02:45:26;;;;;;;1.80;0.38;;;;;;;0.74;63.57;100765.25;2055247;28;20048;-61
2022/04/01 02:46:28;;;;;;;1.88;0.20;;;;;;;0.74;63.61;100770.53;2055167;28;20178;-60
2022/04/01 02:47:30;;;;;;;2.92;0.30;;;;;;;0.73;63.51;100769.63;2062869;28;35514;-61
2022/04/01 02:48:32;;;;;;;3.72;0.30;;;;;;;0.74;63.56;100760.88;2062130;28;40688;-59
2022/04/01 02:49:57;;;;;;;1.75;0.20;;;;;;;0.74;63.65;100775.81;2062906;28;20852;-60
2022/04/01 02:50:58;;;;;;;2.20;0.20;;;;;;;0.74;63.08;100766.13;2054990;28;20190;-60
2022/04/01 02:52:01;;;;;;;1.70;0.20;;;;;;;0.74;63.16;100771.41;2054856;28;20952;-61
2022/04/01 02:53:06;;;;;;;2.30;0.40;;;;;;;0.76;63.14;100779.34;2064244;28;20051;-61
2022/04/01 02:54:08;;;;;;;1.40;0.22;;;;;;;0.77;63.12;100778.47;2062773;28;44185;-60
2022/04/01 02:55:10;;;;;;;0.95;0.50;;;;;;;0.76;63.29;100763.53;2054905;28;20155;-61
2022/04/01 02:56:11;;;;;;;2.25;0.30;;;;;;;0.75;63.25;100772.28;2053622;28;46704;-60
2022/04/01 02:57:13;;;;;;;1.33;0.30;;;;;;;0.74;63.29;100770.53;2055040;28;20133;-60
2022/04/01 02:58:17;;;;;;;1.35;0.30;;;;;;;0.73;63.44;100772.25;2046918;28;20051;-60
2022/04/01 02:59:19;;;;;;;0.70;0.20;;;;;;;0.75;62.84;100773.19;2046760;28;20035;-61
2022/04/01 03:00:24;;;;;;;2.20;0.20;;;;;;;0.75;63.32;100767.00;2054537;28;30720;-60
2022/04/01 03:01:32;;;;;;;2.50;0.20;;;;;;;0.75;63.23;100783.72;2062345;28;20840;-60
2022/04/01 03:02:34;;;;;;;2.85;0.30;;;;;;;0.75;62.96;100765.28;2055008;28;20043;-61
2022/04/01 03:03:35;;;;;;;1.02;0.25;;;;;;;0.78;62.39;100771.47;2054413;28;20043;-61
2022/04/01 03:04:41;;;;;;;0.70;0.20;;;;;;;0.79;62.42;100767.94;2052093;28;20166;-60
2022/04/01 03:05:43;;;;;;;1.55;0.25;;;;;;;0.79;62.94;100771.50;2062739;28;20047;-60
2022/04/01 03:06:44;;;;;;;1.58;0.28;;;;;;;0.80;62.35;100794.31;2054620;28;25002;-61
2022/04/01 03:07:47;;;;;;;1.98;0.30;;;;;;;0.80;62.13;100764.47;2054754;28;20157;-60
2022/04/01 03:08:49;;;;;;;4.38;0.32;;;;;;;0.81;62.77;100760.94;2054685;28;20052;-60
2022/04/01 03:09:51;;;;;;;2.70;0.28;;;;;;;0.81;62.45;100776.75;2062851;28;20058;-60
2022/04/01 03:10:57;;;;;;;2.45;0.30;;;;;;;0.80;62.40;100770.59;2054871;28;20047;-60
2022/04/01 03:12:07;;;;;;;1.88;0.30;;;;;;;0.81;62.14;100774.13;2047907;28;20898;-61
2022/04/01 03:13:21;;;;;;;1.05;0.20;;;;;;;0.83;61.79;100791.75;2054617;28;20094;-60
2022/04/01 03:14:43;;;;;;;3.53;0.25;;;;;;;0.83;61.71;100785.59;2055900;28;20078;-61
2022/04/01 03:16:22;;;;;;;0.60;0.20;;;;;;;0.85;62.30;100773.31;2046201;28;20790;-61
2022/04/01 03:17:33;;;;;;;2.22;0.30;;;;;;;0.85;62.12;100783.84;2046751;28;20182;-61
2022/04/01 03:18:43;;;;;;;1.55;0.20;;;;;;;0.82;62.30;100775.91;2053001;28;20047;-60
2022/04/01 03:19:45;;;;;;;1.10;0.30;;;;;;;0.83;61.98;100769.78;2054714;28;20473;-61
2022/04/01 03:20:47;;;;;;;2.60;0.40;;;;;;;0.84;62.16;100792.63;2063134;28;21054;-61
2022/04/01 03:21:49;;;;;;;3.15;0.20;;;;;;;0.86;61.99;100775.97;2062470;28;20157;-61
2022/04/01 03:22:52;;;;;;;0.95;0.20;;;;;;;0.86;61.73;100778.63;2062682;28;20046;-61
2022/04/01 03:24:01;;;;;;;3.42;0.20;;;;;;;0.87;62.37;100783.00;2061914;28;20141;-60
2022/04/01 03:25:05;;;;;;;2.22;0.20;;;;;;;0.86;62.49;100772.44;2055084;28;20093;-60
2022/04/01 03:26:15;;;;;;;1.70;0.20;;;;;;;0.86;62.36;100783.88;2054724;28;20063;-60
2022/04/01 03:27:24;;;;;;;1.00;0.20;;;;;;;0.87;61.84;100779.50;2055496;28;20050;-60
2022/04/01 03:28:26;;;;;;;2.05;0.20;;;;;;;0.86;62.18;100777.72;2063061;28;20188;-60
2022/04/01 03:29:37;;;;;;;1.98;0.20;;;;;;;0.86;61.88;100772.44;2054552;28;20054;-60
2022/04/01 03:30:40;;;;;;;2.85;0.22;;;;;;;0.86;62.08;100778.63;2047018;28;20048;-60
2022/04/01 03:31:42;;;;;;;1.08;0.20;;;;;;;0.88;61.81;100779.53;2054858;28;20186;-61
2022/04/01 03:32:45;;;;;;;1.52;0.20;;;;;;;0.88;62.31;100789.16;2061958;28;46684;-60
2022/04/01 03:33:48;;;;;;;2.55;0.30;;;;;;;0.88;62.18;100787.44;2047108;28;20115;-61
2022/04/01 03:34:51;;;;;;;0.70;0.20;;;;;;;0.87;61.64;100785.63;2053757;28;45281;-60
2022/04/01 03:35:53;;;;;;;1.13;0.20;;;;;;;0.87;61.92;100776.84;2054720;28;20141;-61
2022/04/01 03:36:58;;;;;;;2.33;0.20;;;;;;;0.86;63.41;100796.16;2055104;28;20045;-60
2022/04/01 03:38:00;;;;;;;2.20;0.40;;;;;;;0.88;64.04;100787.44;2062198;28;20047;-61
2022/04/01 03:39:03;;;;;;;2.50;0.20;;;;;;;0.90;61.60;100790.09;2055318;28;20240;-60
2022/04/01 03:40:22;;;;;;;1.52;0.20;;;;;;;0.87;62.27;100788.28;2055762;28;20162;-61
2022/04/01 03:41:26;;;;;;;1.25;0.30;;;;;;;0.89;62.05;100798.84;2057298;28;20051;-61
2022/04/01 03:42:32;;;;;;;2.63;0.20;;;;;;;0.88;62.08;100789.16;2055899;28;20046;-61
2022/04/01 03:43:35;;;;;;;1.33;0.20;;;;;;;0.88;61.71;100781.25;2056410;28;20050;-60
2022/04/01 03:44:41;;;;;;;1.88;0.28;;;;;;;0.88;62.01;100790.06;2056381;28;20920;-60
2022/04/01 03:46:15;;;;;;;2.47;0.30;;;;;;;0.89;61.68;100789.19;2059255;28;20754;-61
2022/04/01 03:47:23;;;;;;;2.50;0.30;;;;;;;0.87;62.04;100782.13;2056061;28;20039;-60
2022/04/01 03:48:35;;;;;;;3.35;0.20;;;;;;;0.87;62.31;100790.03;2049174;28;20055;-61
2022/04/01 03:49:49;;;;;;;1.25;0.20;;;;;;;0.88;62.48;100786.50;2049177;28;20162;-61
2022/04/01 03:50:58;;;;;;;2.15;0.20;;;;;;;0.89;61.72;100796.22;2050545;28;20043;-60
2022/04/01 03:52:07;;;;;;;1.35;0.15;;;;;;;0.89;62.54;100789.19;2058742;28;20101;-61
2022/04/01 03:53:09;;;;;;;2.28;0.20;;;;;;;0.88;62.46;100795.34;2047949;28;20098;-60
2022/04/01 03:54:15;;;;;;;1.70;0.20;;;;;;;0.88;62.55;100797.06;2049828;28;20873;-60
2022/04/01 03:55:47;;;;;;;0.77;0.10;;;;;;;0.89;61.66;100799.72;2055994;28;20051;-60
2022/04/01 03:57:08;;;;;;;2.30;0.20;;;;;;;0.91;61.17;100789.22;2062678;28;20393;-61
2022/04/01 03:58:30;;;;;;;2.72;0.20;;;;;;;0.94;61.59;100799.81;2055809;28;20043;-60
2022/04/01 03:59:54;;;;;;;1.10;0.20;;;;;;;0.94;62.03;100807.72;2061307;28;20043;-61
2022/04/01 04:01:14;;;;;;;0.82;0.13;;;;;;;0.92;61.34;100801.53;2056039;28;20059;-60
2022/04/01 04:02:18;;;;;;;3.63;0.30;;;;;;;0.93;61.24;100806.84;2055713;28;20911;-60
2022/04/01 04:03:20;;;;;;;0.98;0.10;;;;;;;0.94;61.45;100794.53;2047940;28;33335;-60
2022/04/01 04:04:23;;;;;;;1.73;0.30;;;;;;;0.93;60.97;100798.00;2048127;28;20106;-61
2022/04/01 04:05:30;;;;;;;2.80;0.20;;;;;;;0.93;60.68;100805.91;2048295;28;20901;-60
2022/04/01 04:06:34;;;;;;;1.00;0.20;;;;;;;0.98;60.61;100801.59;2064113;28;22785;-60
2022/04/01 04:07:39;;;;;;;1.58;0.20;;;;;;;0.97;61.13;100799.84;2056110;28;20908;-60
2022/04/01 04:08:46;;;;;;;0.70;0.20;;;;;;;0.97;60.72;100804.22;2049148;28;20893;-60
2022/04/01 04:09:48;;;;;;;1.80;0.10;;;;;;;0.98;60.86;100814.78;2056264;28;20054;-60
2022/04/01 04:10:53;;;;;;;2.38;0.15;;;;;;;0.97;60.72;100799.84;2055522;28;20919;-60
2022/04/01 04:12:16;;;;;;;1.55;0.10;;;;;;;0.97;61.00;100814.75;2058861;28;20130;-61
2022/04/01 04:13:25;;;;;;;1.92;0.20;;;;;;;0.95;61.44;100801.56;2055910;28;20046;-60
2022/04/01 04:14:33;;;;;;;2.42;0.20;;;;;;;0.95;61.79;100806.81;2056575;28;20044;-60
2022/04/01 04:16:00;;;;;;;3.65;0.30;;;;;;;0.96;61.33;100816.53;2055774;28;20885;-61
2022/04/01 04:17:16;;;;;;;2.30;0.20;;;;;;;0.97;60.84;100810.41;2059609;28;20046;-61
2022/04/01 04:18:20;;;;;;;3.55;0.25;;;;;;;0.97;61.17;100805.13;2056066;28;20346;-61
2022/04/01 04:19:49;;;;;;;5.07;0.10;;;;;;;0.98;61.19;100817.41;2055148;28;26888;-61
2022/04/01 04:21:04;;;;;;;3.70;0.10;;;;;;;0.99;60.19;100810.38;2059485;28;20923;-61
2022/04/01 04:22:16;;;;;;;2.08;0.20;;;;;;;1.02;59.65;100819.22;2060824;28;20943;-61
2022/04/01 04:23:34;;;;;;;1.00;0.10;;;;;;;1.04;59.76;100817.53;2056656;28;20046;-61
2022/04/01 04:25:10;;;;;;;1.23;0.20;;;;;;;1.03;59.72;100813.09;2055837;28;20047;-61
2022/04/01 04:26:35;;;;;;;1.88;0.10;;;;;;;1.02;59.89;100806.03;2052533;28;20841;-61
2022/04/01 04:27:49;;;;;;;2.33;0.20;;;;;;;1.02;59.38;100810.44;2051014;28;20138;-61
2022/04/01 04:28:59;;;;;;;0.88;0.20;;;;;;;1.07;57.76;100833.38;2057593;28;20048;-61
2022/04/01 04:30:14;;;;;;;0.45;0.10;;;;;;;1.06;58.12;100810.53;2056106;28;20047;-61
2022/04/01 04:31:30;;;;;;;1.70;0.22;;;;;;;1.06;58.05;100810.53;2056973;28;20039;-61
2022/04/01 04:33:00;;;;;;;1.90;0.20;;;;;;;1.06;57.20;100821.06;2055531;28;20043;-61
2022/04/01 04:34:08;;;;;;;1.98;0.20;;;;;;;1.10;56.49;100820.22;2058219;28;32679;-61
2022/04/01 04:35:11;;;;;;;2.60;0.30;;;;;;;1.08;57.44;100818.44;2056357;28;20797;-61
2022/04/01 04:36:19;;;;;;;1.27;0.20;;;;;;;1.06;57.30;100820.16;2056467;28;20083;-61
2022/04/01 04:37:36;;;;;;;3.58;0.20;;;;;;;1.05;57.07;100829.81;2055963;28;20109;-61
2022/04/01 04:38:43;;;;;;;0.80;0.20;;;;;;;1.05;57.65;100828.94;2063996;28;20094;-61
2022/04/01 04:39:48;;;;;;;1.95;0.17;;;;;;;1.06;56.54;100813.16;2055834;28;20154;-61
2022/04/01 04:40:52;;;;;;;1.58;0.28;;;;;;;1.14;55.32;100829.06;2048205;28;20052;-61
2022/04/01 04:41:54;;;;;;;1.90;0.20;;;;;;;1.14;55.35;100824.69;2047513;28;20154;-61
2022/04/01 04:42:56;;;;;;;3.20;0.30;;;;;;;1.13;56.19;100824.66;2047329;28;38350;-61
2022/04/01 04:44:00;;;;;;;1.48;0.22;;;;;;;1.12;55.76;100830.81;2048326;28;20210;-60
2022/04/01 04:45:04;;;;;;;2.03;0.10;;;;;;;1.13;55.94;100817.66;2055953;28;36087;-61
2022/04/01 04:46:08;;;;;;;1.60;0.20;;;;;;;1.13;56.14;100829.91;2063308;28;20102;-61
2022/04/01 04:47:11;;;;;;;0.50;0.20;;;;;;;1.13;55.45;100828.19;2055987;28;20158;-61
2022/04/01 04:48:15;;;;;;;3.10;0.10;;;;;;;1.14;55.46;100815.88;2054780;28;41607;-61
2022/04/01 04:49:18;;;;;;;1.95;0.15;;;;;;;1.16;55.34;100831.72;2055710;28;20043;-61
2022/04/01 04:50:21;;;;;;;1.38;0.10;;;;;;;1.19;55.75;100834.41;2054327;28;20963;-61
2022/04/01 04:51:30;;;;;;;1.50;0.25;;;;;;;1.19;56.01;100829.16;2047497;28;20095;-61
2022/04/01 04:52:53;;;;;;;1.77;0.13;;;;;;;1.16;56.26;100831.72;2060950;28;20805;-61
2022/04/01 04:53:59;;;;;;;2.25;0.47;;;;;;;1.16;56.71;100826.47;2054542;28;44416;-61
2022/04/01 04:55:06;;;;;;;4.30;0.85;;;;;;;1.13;57.02;100835.19;2055836;28;20047;-61
2022/04/01 04:56:33;;;;;;;4.90;2.63;;;;;;;1.14;57.45;100831.72;2051659;28;20896;-61
2022/04/01 04:57:35;;;;;;;11.57;7.10;;;;;;;1.12;57.27;100836.97;2047415;28;25950;-61
2022/04/01 04:58:39;;;;;;;22.45;15.57;;;;;;;1.12;57.59;100828.16;2047825;28;21042;-61
2022/04/01 04:59:46;;;;;;;25.40;16.30;;;;;;;1.13;58.05;100829.91;2048219;28;20240;-61
2022/04/01 05:01:02;;;;;;;24.13;14.90;;;;;;;1.11;58.79;100839.56;2047984;28;20048;-60
2022/04/01 05:02:41;;;;;;;53.92;35.13;;;;;;;1.12;58.39;100839.59;2050255;28;20051;-61
2022/04/01 05:04:09;;;;;;;59.22;38.70;;;;;;;1.09;59.28;100831.63;2051432;28;20083;-60
2022/04/01 05:05:34;;;;;;;48.80;31.00;;;;;;;1.10;59.85;100845.72;2050926;28;20160;-60
2022/04/01 05:07:20;;;;;;;56.28;35.58;;;;;;;1.12;60.00;100859.81;2055601;28;20105;-60
2022/04/01 05:09:00;;;;;;;67.97;42.13;;;;;;;1.12;60.46;100849.25;2056243;28;20047;-60
2022/04/01 05:10:18;;;;;;;45.10;28.65;;;;;;;1.08;61.18;100845.69;2055521;28;20892;-60
2022/04/01 05:11:57;;;;;;;28.00;18.70;;;;;;;1.06;61.29;100850.06;2048608;28;20052;-60
2022/04/01 05:13:25;;;;;;;46.65;29.35;;;;;;;1.06;61.30;100846.53;2055857;28;20056;-60
2022/04/01 05:15:12;;;;;;;70.68;47.25;;;;;;;1.08;61.86;100850.97;2055406;28;20047;-60
2022/04/01 05:16:52;;;;;;;73.25;47.33;;;;;;;1.07;61.87;100854.47;2045118;28;20048;-60
2022/04/01 05:18:16;;;;;;;75.03;49.78;;;;;;;1.09;62.52;100852.72;2052620;28;20109;-60
2022/04/01 05:19:27;;;;;;;67.70;46.38;;;;;;;1.09;62.42;100859.75;2041891;28;44339;-60
2022/04/01 05:20:38;;;;;;;65.00;40.50;;;;;;;1.07;62.21;100859.72;2054940;28;20047;-60